sensor_id;sensor_type;location;lat;lon;timestamp;pressure;altitude;pressure_sealevel;temperature;humidity
85507;BME280;75915;41.988;21.460;2024-02-15T00:00:21;99326.34;;;6.74;45.50
85507;BME280;75915;41.988;21.460;2024-02-15T00:02:48;99331.03;;;6.78;45.36
85507;BME280;75915;41.988;21.460;2024-02-15T00:05:14;99337.53;;;6.82;45.34
85507;BME280;75915;41.988;21.460;2024-02-15T00:07:41;99330.59;;;6.81;45.41
85507;BME280;75915;41.988;21.460;2024-02-15T00:10:07;99330.00;;;6.79;44.76
85507;BME280;75915;41.988;21.460;2024-02-15T00:12:34;99335.53;;;6.78;45.11
85507;BME280;75915;41.988;21.460;2024-02-15T00:15:00;99337.00;;;6.74;45.00
85507;BME280;75915;41.988;21.460;2024-02-15T00:17:27;99340.94;;;6.71;45.11
85507;BME280;75915;41.988;21.460;2024-02-15T00:19:54;99344.56;;;6.77;44.99
85507;BME280;75915;41.988;21.460;2024-02-15T00:22:21;99341.78;;;6.72;45.13
85507;BME280;75915;41.988;21.460;2024-02-15T00:24:47;99343.84;;;6.70;45.47
85507;BME280;75915;41.988;21.460;2024-02-15T00:27:15;99350.91;;;6.76;45.40
85507;BME280;75915;41.988;21.460;2024-02-15T00:29:41;99354.63;;;6.75;45.51
85507;BME280;75915;41.988;21.460;2024-02-15T00:32:08;99347.91;;;6.72;45.38
85507;BME280;75915;41.988;21.460;2024-02-15T00:34:36;99357.31;;;6.75;45.36
85507;BME280;75915;41.988;21.460;2024-02-15T00:37:04;99353.59;;;6.76;45.04
85507;BME280;75915;41.988;21.460;2024-02-15T00:39:31;99349.66;;;6.78;45.49
85507;BME280;75915;41.988;21.460;2024-02-15T00:41:58;99356.25;;;6.76;45.51
85507;BME280;75915;41.988;21.460;2024-02-15T00:44:26;99356.25;;;6.76;45.17
85507;BME280;75915;41.988;21.460;2024-02-15T00:46:51;99359.38;;;6.73;45.66
85507;BME280;75915;41.988;21.460;2024-02-15T00:49:17;99359.97;;;6.75;45.46
85507;BME280;75915;41.988;21.460;2024-02-15T00:51:46;99356.91;;;6.71;45.83
85507;BME280;75915;41.988;21.460;2024-02-15T00:54:13;99363.88;;;6.72;45.60
85507;BME280;75915;41.988;21.460;2024-02-15T00:56:41;99361.44;;;6.71;45.52
85507;BME280;75915;41.988;21.460;2024-02-15T00:59:07;99364.53;;;6.68;45.89
85507;BME280;75915;41.988;21.460;2024-02-15T01:01:34;99369.50;;;6.64;45.83
85507;BME280;75915;41.988;21.460;2024-02-15T01:04:02;99365.41;;;6.61;46.04
85507;BME280;75915;41.988;21.460;2024-02-15T01:06:27;99360.53;;;6.58;45.88
85507;BME280;75915;41.988;21.460;2024-02-15T01:08:53;99363.34;;;6.63;45.65
85507;BME280;75915;41.988;21.460;2024-02-15T01:11:20;99361.50;;;6.64;45.38
85507;BME280;75915;41.988;21.460;2024-02-15T01:13:46;99360.25;;;6.67;45.40
85507;BME280;75915;41.988;21.460;2024-02-15T01:16:13;99364.75;;;6.66;45.64
85507;BME280;75915;41.988;21.460;2024-02-15T01:18:40;99360.25;;;6.67;45.19
85507;BME280;75915;41.988;21.460;2024-02-15T01:21:06;99360.63;;;6.70;45.38
85507;BME280;75915;41.988;21.460;2024-02-15T01:23:38;99355.50;;;6.69;44.97
85507;BME280;75915;41.988;21.460;2024-02-15T01:26:04;99357.56;;;6.67;45.15
85507;BME280;75915;41.988;21.460;2024-02-15T01:28:30;99356.16;;;6.64;45.51
85507;BME280;75915;41.988;21.460;2024-02-15T01:30:56;99350.03;;;6.63;45.04
85507;BME280;75915;41.988;21.460;2024-02-15T01:33:21;99358.84;;;6.64;44.95
85507;BME280;75915;41.988;21.460;2024-02-15T01:35:47;99349.81;;;6.65;44.79
85507;BME280;75915;41.988;21.460;2024-02-15T01:38:13;99348.56;;;6.68;45.21
85507;BME280;75915;41.988;21.460;2024-02-15T01:40:41;99351.81;;;6.70;44.82
85507;BME280;75915;41.988;21.460;2024-02-15T01:43:08;99351.59;;;6.71;44.77
85507;BME280;75915;41.988;21.460;2024-02-15T01:45:33;99352.63;;;6.70;44.88
85507;BME280;75915;41.988;21.460;2024-02-15T01:48:01;99353.91;;;6.68;45.12
85507;BME280;75915;41.988;21.460;2024-02-15T01:50:29;99354.09;;;6.66;45.12
85507;BME280;75915;41.988;21.460;2024-02-15T01:52:56;99357.00;;;6.65;44.86
85507;BME280;75915;41.988;21.460;2024-02-15T01:55:23;99355.59;;;6.62;45.15
85507;BME280;75915;41.988;21.460;2024-02-15T01:57:51;99355.22;;;6.58;45.10
85507;BME280;75915;41.988;21.460;2024-02-15T02:00:18;99360.34;;;6.60;45.12
85507;BME280;75915;41.988;21.460;2024-02-15T02:02:45;99358.69;;;6.59;45.28
85507;BME280;75915;41.988;21.460;2024-02-15T02:05:11;99360.19;;;6.55;45.32
85507;BME280;75915;41.988;21.460;2024-02-15T02:07:38;99353.44;;;6.52;45.33
85507;BME280;75915;41.988;21.460;2024-02-15T02:10:04;99353.44;;;6.52;45.15
85507;BME280;75915;41.988;21.460;2024-02-15T02:12:31;99355.53;;;6.50;45.17
85507;BME280;75915;41.988;21.460;2024-02-15T02:14:58;99351.22;;;6.49;45.25
85507;BME280;75915;41.988;21.460;2024-02-15T02:17:24;99358.38;;;6.49;45.62
85507;BME280;75915;41.988;21.460;2024-02-15T02:19:49;99355.72;;;6.49;45.46
85507;BME280;75915;41.988;21.460;2024-02-15T02:22:17;99354.13;;;6.48;45.42
85507;BME280;75915;41.988;21.460;2024-02-15T02:27:21;99356.38;;;6.44;45.41
85507;BME280;75915;41.988;21.460;2024-02-15T02:29:47;99361.72;;;6.44;45.49
85507;BME280;75915;41.988;21.460;2024-02-15T02:32:12;99377.53;;;6.39;45.83
85507;BME280;75915;41.988;21.460;2024-02-15T02:34:39;99369.34;;;6.40;45.84
85507;BME280;75915;41.988;21.460;2024-02-15T02:37:07;99381.00;;;6.39;45.41
85507;BME280;75915;41.988;21.460;2024-02-15T02:39:34;99378.59;;;6.38;45.37
85507;BME280;75915;41.988;21.460;2024-02-15T02:42:00;99377.38;;;6.34;45.60
85507;BME280;75915;41.988;21.460;2024-02-15T02:44:25;99389.28;;;6.31;45.59
85507;BME280;75915;41.988;21.460;2024-02-15T02:46:51;99389.81;;;6.15;46.54
85507;BME280;75915;41.988;21.460;2024-02-15T02:49:19;99392.66;;;5.63;48.29
85507;BME280;75915;41.988;21.460;2024-02-15T02:51:46;99393.47;;;5.19;49.13
85507;BME280;75915;41.988;21.460;2024-02-15T02:54:12;99391.69;;;5.06;49.73
85507;BME280;75915;41.988;21.460;2024-02-15T02:56:40;99387.19;;;5.06;49.29
85507;BME280;75915;41.988;21.460;2024-02-15T02:59:06;99384.91;;;5.17;49.54
85507;BME280;75915;41.988;21.460;2024-02-15T03:01:33;99395.31;;;5.18;49.65
85507;BME280;75915;41.988;21.460;2024-02-15T03:03:59;99399.41;;;5.14;49.83
85507;BME280;75915;41.988;21.460;2024-02-15T03:06:26;99393.31;;;5.07;49.62
85507;BME280;75915;41.988;21.460;2024-02-15T03:08:51;99396.03;;;4.94;50.04
85507;BME280;75915;41.988;21.460;2024-02-15T03:11:20;99404.63;;;4.96;49.97
85507;BME280;75915;41.988;21.460;2024-02-15T03:13:46;99406.22;;;5.03;49.93
85507;BME280;75915;41.988;21.460;2024-02-15T03:16:12;99406.59;;;5.07;50.09
85507;BME280;75915;41.988;21.460;2024-02-15T03:18:37;99409.69;;;5.04;50.25
85507;BME280;75915;41.988;21.460;2024-02-15T03:21:06;99408.25;;;5.08;50.47
85507;BME280;75915;41.988;21.460;2024-02-15T03:23:31;99406.84;;;5.05;50.22
85507;BME280;75915;41.988;21.460;2024-02-15T03:25:58;99404.19;;;5.05;50.30
85507;BME280;75915;41.988;21.460;2024-02-15T03:28:24;99404.97;;;5.12;50.41
85507;BME280;75915;41.988;21.460;2024-02-15T03:30:50;99408.03;;;5.09;49.80
85507;BME280;75915;41.988;21.460;2024-02-15T03:33:15;99397.78;;;5.20;50.18
85507;BME280;75915;41.988;21.460;2024-02-15T03:35:41;99402.88;;;5.14;50.40
85507;BME280;75915;41.988;21.460;2024-02-15T03:38:07;99408.03;;;5.09;50.65
85507;BME280;75915;41.988;21.460;2024-02-15T03:40:33;99410.69;;;5.09;50.18
85507;BME280;75915;41.988;21.460;2024-02-15T03:42:59;99415.41;;;5.07;50.52
85507;BME280;75915;41.988;21.460;2024-02-15T03:45:26;99418.09;;;4.94;50.48
85507;BME280;75915;41.988;21.460;2024-02-15T03:47:52;99416.25;;;4.88;50.56
85507;BME280;75915;41.988;21.460;2024-02-15T03:50:20;99423.66;;;4.86;50.74
85507;BME280;75915;41.988;21.460;2024-02-15T03:52:47;99417.06;;;4.95;51.32
85507;BME280;75915;41.988;21.460;2024-02-15T03:55:13;99416.06;;;4.96;51.20
85507;BME280;75915;41.988;21.460;2024-02-15T03:57:41;99415.00;;;4.97;50.98
85507;BME280;75915;41.988;21.460;2024-02-15T04:00:09;99418.88;;;5.01;50.79
85507;BME280;75915;41.988;21.460;2024-02-15T04:02:37;99424.81;;;4.97;50.89
85507;BME280;75915;41.988;21.460;2024-02-15T04:05:07;99424.03;;;4.96;50.98
85507;BME280;75915;41.988;21.460;2024-02-15T04:07:35;99425.88;;;4.96;51.23
85507;BME280;75915;41.988;21.460;2024-02-15T04:10:00;99431.56;;;4.92;51.03
85507;BME280;75915;41.988;21.460;2024-02-15T04:12:26;99435.06;;;4.93;50.93
85507;BME280;75915;41.988;21.460;2024-02-15T04:14:52;99432.19;;;4.95;51.00
85507;BME280;75915;41.988;21.460;2024-02-15T04:17:18;99435.41;;;5.10;50.68
85507;BME280;75915;41.988;21.460;2024-02-15T04:19:47;99431.53;;;5.12;50.48
85507;BME280;75915;41.988;21.460;2024-02-15T04:22:19;99431.53;;;5.12;50.72
85507;BME280;75915;41.988;21.460;2024-02-15T04:24:44;99437.66;;;5.13;50.42
85507;BME280;75915;41.988;21.460;2024-02-15T04:27:11;99432.16;;;5.08;50.58
85507;BME280;75915;41.988;21.460;2024-02-15T04:29:42;99436.44;;;5.02;50.97
85507;BME280;75915;41.988;21.460;2024-02-15T04:32:10;99438.97;;;4.90;51.70
85507;BME280;75915;41.988;21.460;2024-02-15T04:34:37;99439.63;;;4.46;52.71
85507;BME280;75915;41.988;21.460;2024-02-15T04:37:03;99442.72;;;4.16;53.52
85507;BME280;75915;41.988;21.460;2024-02-15T04:39:36;99441.69;;;4.04;53.72
85507;BME280;75915;41.988;21.460;2024-02-15T04:42:05;99439.22;;;3.89;54.20
85507;BME280;75915;41.988;21.460;2024-02-15T04:44:33;99438.38;;;3.75;54.58
85507;BME280;75915;41.988;21.460;2024-02-15T04:47:02;99437.34;;;3.63;54.85
85507;BME280;75915;41.988;21.460;2024-02-15T04:49:29;99437.97;;;3.78;54.53
85507;BME280;75915;41.988;21.460;2024-02-15T04:51:55;99441.44;;;3.85;54.45
85507;BME280;75915;41.988;21.460;2024-02-15T04:54:22;99435.75;;;3.95;54.07
85507;BME280;75915;41.988;21.460;2024-02-15T04:56:48;99444.31;;;3.91;54.26
85507;BME280;75915;41.988;21.460;2024-02-15T04:59:19;99451.66;;;3.82;54.51
85507;BME280;75915;41.988;21.460;2024-02-15T05:01:48;99442.25;;;3.79;54.50
85507;BME280;75915;41.988;21.460;2024-02-15T05:04:14;99449.72;;;3.49;55.36
85507;BME280;75915;41.988;21.460;2024-02-15T05:06:40;99450.16;;;3.53;55.20
85507;BME280;75915;41.988;21.460;2024-02-15T05:09:07;99450.75;;;3.55;55.24
85507;BME280;75915;41.988;21.460;2024-02-15T05:11:40;99458.47;;;3.50;55.08
85507;BME280;75915;41.988;21.460;2024-02-15T05:14:15;99463.38;;;3.46;55.19
85507;BME280;75915;41.988;21.460;2024-02-15T05:16:50;99475.47;;;3.20;56.20
85507;BME280;75915;41.988;21.460;2024-02-15T05:19:17;99476.88;;;3.10;56.34
85507;BME280;75915;41.988;21.460;2024-02-15T05:21:44;99482.13;;;3.03;56.42
85507;BME280;75915;41.988;21.460;2024-02-15T05:24:15;99480.25;;;2.97;56.48
85507;BME280;75915;41.988;21.460;2024-02-15T05:26:46;99482.13;;;3.03;56.12
85507;BME280;75915;41.988;21.460;2024-02-15T05:29:14;99480.56;;;3.15;55.86
85507;BME280;75915;41.988;21.460;2024-02-15T05:31:40;99477.13;;;3.28;55.94
85507;BME280;75915;41.988;21.460;2024-02-15T05:34:07;99475.75;;;3.32;55.78
85507;BME280;75915;41.988;21.460;2024-02-15T05:36:34;99477.13;;;3.22;55.92
85507;BME280;75915;41.988;21.460;2024-02-15T05:39:00;99484.22;;;3.14;55.85
85507;BME280;75915;41.988;21.460;2024-02-15T05:41:25;99486.75;;;3.29;55.85
85507;BME280;75915;41.988;21.460;2024-02-15T05:43:51;99483.88;;;3.31;55.74
85507;BME280;75915;41.988;21.460;2024-02-15T05:46:23;99477.63;;;3.38;55.80
85507;BME280;75915;41.988;21.460;2024-02-15T05:48:49;99477.88;;;3.57;55.48
85507;BME280;75915;41.988;21.460;2024-02-15T05:51:16;99482.59;;;3.68;55.31
85507;BME280;75915;41.988;21.460;2024-02-15T05:53:43;99483.66;;;3.80;54.97
85507;BME280;75915;41.988;21.460;2024-02-15T05:56:13;99489.41;;;4.04;54.67
85507;BME280;75915;41.988;21.460;2024-02-15T05:58:40;99486.56;;;4.19;54.22
85507;BME280;75915;41.988;21.460;2024-02-15T06:01:06;99491.88;;;4.32;54.03
85507;BME280;75915;41.988;21.460;2024-02-15T06:03:34;99496.78;;;4.82;52.69
85507;BME280;75915;41.988;21.460;2024-02-15T06:06:04;99486.00;;;5.42;51.25
85507;BME280;75915;41.988;21.460;2024-02-15T06:08:35;99490.94;;;5.70;50.23
85507;BME280;75915;41.988;21.460;2024-02-15T06:11:02;99493.44;;;6.10;49.72
85507;BME280;75915;41.988;21.460;2024-02-15T06:13:29;99480.94;;;6.35;48.62
85507;BME280;75915;41.988;21.460;2024-02-15T06:15:55;99487.25;;;6.66;48.19
85507;BME280;75915;41.988;21.460;2024-02-15T06:18:22;99487.38;;;7.15;46.72
85507;BME280;75915;41.988;21.460;2024-02-15T06:20:53;99486.28;;;7.04;46.86
85507;BME280;75915;41.988;21.460;2024-02-15T06:23:19;99495.13;;;6.79;47.35
85507;BME280;75915;41.988;21.460;2024-02-15T06:25:47;99490.56;;;6.61;47.96
85507;BME280;75915;41.988;21.460;2024-02-15T06:28:14;99499.22;;;6.32;48.02
85507;BME280;75915;41.988;21.460;2024-02-15T06:30:58;99497.09;;;7.09;47.28
85507;BME280;75915;41.988;21.460;2024-02-15T06:33:42;99495.53;;;8.17;45.32
85507;BME280;75915;41.988;21.460;2024-02-15T06:36:27;99493.75;;;9.12;43.76
85507;BME280;75915;41.988;21.460;2024-02-15T06:39:11;99485.84;;;9.98;41.58
85507;BME280;75915;41.988;21.460;2024-02-15T06:41:56;99487.19;;;10.63;39.86
85507;BME280;75915;41.988;21.460;2024-02-15T06:44:22;99487.91;;;10.92;39.56
85507;BME280;75915;41.988;21.460;2024-02-15T06:46:49;99493.03;;;10.77;39.36
85507;BME280;75915;41.988;21.460;2024-02-15T06:49:15;99494.41;;;10.79;38.67
85507;BME280;75915;41.988;21.460;2024-02-15T06:51:42;99500.56;;;10.29;39.07
85507;BME280;75915;41.988;21.460;2024-02-15T06:54:09;99493.19;;;10.70;38.85
85507;BME280;75915;41.988;21.460;2024-02-15T06:56:37;99506.53;;;10.48;38.46
85507;BME280;75915;41.988;21.460;2024-02-15T06:59:03;99506.13;;;10.11;39.47
85507;BME280;75915;41.988;21.460;2024-02-15T07:01:29;99499.22;;;11.16;38.31
85507;BME280;75915;41.988;21.460;2024-02-15T07:03:54;99494.78;;;12.20;36.47
85507;BME280;75915;41.988;21.460;2024-02-15T07:06:21;99502.81;;;12.79;35.13
85507;BME280;75915;41.988;21.460;2024-02-15T07:08:47;99498.66;;;13.47;34.13
85507;BME280;75915;41.988;21.460;2024-02-15T07:11:13;99486.38;;;13.86;33.17
85507;BME280;75915;41.988;21.460;2024-02-15T07:13:38;99484.28;;;14.24;32.59
85507;BME280;75915;41.988;21.460;2024-02-15T07:16:08;99483.75;;;14.43;32.28
85507;BME280;75915;41.988;21.460;2024-02-15T07:18:34;99485.09;;;14.45;32.09
85507;BME280;75915;41.988;21.460;2024-02-15T07:21:00;99478.88;;;14.24;33.08
85507;BME280;75915;41.988;21.460;2024-02-15T07:23:28;99484.81;;;14.47;32.96
85507;BME280;75915;41.988;21.460;2024-02-15T07:26:02;99479.72;;;14.71;32.37
85507;BME280;75915;41.988;21.460;2024-02-15T07:28:29;99481.34;;;14.77;32.25
85507;BME280;75915;41.988;21.460;2024-02-15T07:30:56;99485.63;;;14.22;33.00
85507;BME280;75915;41.988;21.460;2024-02-15T07:33:23;99485.31;;;13.98;33.39
85507;BME280;75915;41.988;21.460;2024-02-15T07:35:50;99480.97;;;13.81;33.48
85507;BME280;75915;41.988;21.460;2024-02-15T07:38:17;99478.00;;;13.73;33.78
85507;BME280;75915;41.988;21.460;2024-02-15T07:40:43;99485.44;;;13.45;33.40
85507;BME280;75915;41.988;21.460;2024-02-15T07:43:10;99481.34;;;13.27;34.39
85507;BME280;75915;41.988;21.460;2024-02-15T07:45:35;99473.66;;;13.09;34.00
85507;BME280;75915;41.988;21.460;2024-02-15T07:48:04;99479.13;;;12.44;35.19
85507;BME280;75915;41.988;21.460;2024-02-15T07:50:30;99476.50;;;12.17;35.47
85507;BME280;75915;41.988;21.460;2024-02-15T07:52:56;99463.81;;;12.77;35.29
85507;BME280;75915;41.988;21.460;2024-02-15T07:55:22;99460.66;;;13.43;33.98
85507;BME280;75915;41.988;21.460;2024-02-15T07:57:52;99456.25;;;14.00;33.12
85507;BME280;75915;41.988;21.460;2024-02-15T08:00:18;99450.84;;;13.95;32.75
85507;BME280;75915;41.988;21.460;2024-02-15T08:02:45;99454.63;;;14.04;33.20
85507;BME280;75915;41.988;21.460;2024-02-15T08:05:12;99450.84;;;14.46;32.83
85507;BME280;75915;41.988;21.460;2024-02-15T08:07:44;99446.84;;;14.54;32.40
85507;BME280;75915;41.988;21.460;2024-02-15T08:10:13;99441.94;;;14.71;31.88
85507;BME280;75915;41.988;21.460;2024-02-15T08:12:44;99445.22;;;14.58;32.11
85507;BME280;75915;41.988;21.460;2024-02-15T08:15:11;99445.19;;;14.73;32.21
85507;BME280;75915;41.988;21.460;2024-02-15T08:17:42;99447.59;;;14.80;31.24
85507;BME280;75915;41.988;21.460;2024-02-15T08:20:15;99446.53;;;14.91;31.00
85507;BME280;75915;41.988;21.460;2024-02-15T08:22:43;99439.22;;;14.91;31.32
85507;BME280;75915;41.988;21.460;2024-02-15T08:25:11;99443.50;;;14.98;31.08
85507;BME280;75915;41.988;21.460;2024-02-15T08:27:38;99434.63;;;14.92;31.75
85507;BME280;75915;41.988;21.460;2024-02-15T08:30:12;99427.63;;;14.91;31.03
85507;BME280;75915;41.988;21.460;2024-02-15T08:32:40;99425.66;;;15.12;30.84
85507;BME280;75915;41.988;21.460;2024-02-15T08:35:13;99421.84;;;15.23;30.60
85507;BME280;75915;41.988;21.460;2024-02-15T08:37:40;99421.84;;;15.23;30.40
85507;BME280;75915;41.988;21.460;2024-02-15T08:40:09;99418.38;;;15.07;31.42
85507;BME280;75915;41.988;21.460;2024-02-15T08:42:43;99422.91;;;15.27;33.29
85507;BME280;75915;41.988;21.460;2024-02-15T08:45:10;99423.91;;;15.47;31.68
85507;BME280;75915;41.988;21.460;2024-02-15T08:47:41;99424.78;;;15.32;32.50
85507;BME280;75915;41.988;21.460;2024-02-15T08:50:08;99421.22;;;15.42;31.14
85507;BME280;75915;41.988;21.460;2024-02-15T08:52:37;99423.09;;;15.41;30.63
85507;BME280;75915;41.988;21.460;2024-02-15T08:55:09;99417.78;;;15.26;31.17
85507;BME280;75915;41.988;21.460;2024-02-15T08:57:36;99414.78;;;15.32;31.55
85507;BME280;75915;41.988;21.460;2024-02-15T09:00:04;99411.25;;;15.37;31.31
85507;BME280;75915;41.988;21.460;2024-02-15T09:02:36;99407.22;;;15.34;30.79
85507;BME280;75915;41.988;21.460;2024-02-15T09:05:01;99412.78;;;15.48;31.40
85507;BME280;75915;41.988;21.460;2024-02-15T09:07:27;99410.34;;;15.57;31.28
85507;BME280;75915;41.988;21.460;2024-02-15T09:09:53;99413.03;;;15.57;30.60
85507;BME280;75915;41.988;21.460;2024-02-15T09:12:20;99411.16;;;15.52;31.17
85507;BME280;75915;41.988;21.460;2024-02-15T09:14:46;99409.06;;;15.44;31.64
85507;BME280;75915;41.988;21.460;2024-02-15T09:17:13;99410.44;;;15.42;31.57
85507;BME280;75915;41.988;21.460;2024-02-15T09:19:39;99406.06;;;15.46;31.52
85507;BME280;75915;41.988;21.460;2024-02-15T09:22:06;99399.25;;;15.58;30.44
85507;BME280;75915;41.988;21.460;2024-02-15T09:24:32;99399.72;;;15.76;29.93
85507;BME280;75915;41.988;21.460;2024-02-15T09:27:03;99395.38;;;15.75;30.08
85507;BME280;75915;41.988;21.460;2024-02-15T09:29:29;99393.53;;;15.70;29.26
85507;BME280;75915;41.988;21.460;2024-02-15T09:32:00;99397.94;;;15.56;29.56
85507;BME280;75915;41.988;21.460;2024-02-15T09:34:27;99394.19;;;15.47;29.58
85507;BME280;75915;41.988;21.460;2024-02-15T09:36:56;99394.41;;;15.55;29.78
85507;BME280;75915;41.988;21.460;2024-02-15T09:39:22;99392.00;;;15.54;28.80
85507;BME280;75915;41.988;21.460;2024-02-15T09:41:48;99386.34;;;15.45;29.53
85507;BME280;75915;41.988;21.460;2024-02-15T09:44:21;99387.19;;;15.41;29.51
85507;BME280;75915;41.988;21.460;2024-02-15T09:46:46;99395.69;;;15.13;29.50
85507;BME280;75915;41.988;21.460;2024-02-15T09:49:17;99380.41;;;14.93;30.07
85507;BME280;75915;41.988;21.460;2024-02-15T09:51:47;99386.38;;;14.80;30.81
85507;BME280;75915;41.988;21.460;2024-02-15T09:54:14;99390.41;;;14.83;29.97
85507;BME280;75915;41.988;21.460;2024-02-15T09:56:50;99393.06;;;14.98;30.36
85507;BME280;75915;41.988;21.460;2024-02-15T09:59:19;99384.41;;;15.01;29.68
85507;BME280;75915;41.988;21.460;2024-02-15T10:01:47;99380.94;;;14.90;29.61
85507;BME280;75915;41.988;21.460;2024-02-15T10:04:14;99379.63;;;14.83;29.74
85507;BME280;75915;41.988;21.460;2024-02-15T10:06:42;99371.28;;;14.79;29.41
85507;BME280;75915;41.988;21.460;2024-02-15T10:09:29;99371.03;;;14.70;30.33
85507;BME280;75915;41.988;21.460;2024-02-15T10:12:00;99357.56;;;14.50;29.90
85507;BME280;75915;41.988;21.460;2024-02-15T10:14:27;99368.91;;;14.42;29.89
85507;BME280;75915;41.988;21.460;2024-02-15T10:16:53;99356.22;;;14.52;29.99
85507;BME280;75915;41.988;21.460;2024-02-15T10:19:20;99353.78;;;14.61;29.66
85507;BME280;75915;41.988;21.460;2024-02-15T10:21:52;99355.13;;;14.64;29.91
85507;BME280;75915;41.988;21.460;2024-02-15T10:24:22;99342.97;;;14.77;30.04
85507;BME280;75915;41.988;21.460;2024-02-15T10:26:50;99335.88;;;14.96;29.64
85507;BME280;75915;41.988;21.460;2024-02-15T10:29:16;99324.53;;;14.94;29.86
85507;BME280;75915;41.988;21.460;2024-02-15T10:32:00;99327.81;;;14.91;29.66
85507;BME280;75915;41.988;21.460;2024-02-15T10:34:25;99326.47;;;14.88;30.85
85507;BME280;75915;41.988;21.460;2024-02-15T10:37:15;99326.56;;;14.58;30.34
85507;BME280;75915;41.988;21.460;2024-02-15T10:39:44;99323.56;;;14.59;30.44
85507;BME280;75915;41.988;21.460;2024-02-15T10:42:09;99324.38;;;14.70;31.46
85507;BME280;75915;41.988;21.460;2024-02-15T10:44:38;99317.38;;;14.64;30.42
85507;BME280;75915;41.988;21.460;2024-02-15T10:47:05;99309.59;;;14.57;29.74
85507;BME280;75915;41.988;21.460;2024-02-15T10:49:35;99310.38;;;14.63;29.95
85507;BME280;75915;41.988;21.460;2024-02-15T10:52:02;99301.19;;;14.59;29.88
85507;BME280;75915;41.988;21.460;2024-02-15T10:57:05;99292.88;;;14.55;30.12
85507;BME280;75915;41.988;21.460;2024-02-15T10:59:35;99295.81;;;14.48;30.07
85507;BME280;75915;41.988;21.460;2024-02-15T11:02:27;99289.66;;;14.43;29.96
85507;BME280;75915;41.988;21.460;2024-02-15T11:04:58;99287.47;;;14.40;31.53
85507;BME280;75915;41.988;21.460;2024-02-15T11:07:28;99269.72;;;14.34;29.53
85507;BME280;75915;41.988;21.460;2024-02-15T11:09:55;99274.34;;;14.13;30.86
85507;BME280;75915;41.988;21.460;2024-02-15T11:12:22;99275.69;;;14.15;31.43
85507;BME280;75915;41.988;21.460;2024-02-15T11:14:49;99276.75;;;14.24;31.04
85507;BME280;75915;41.988;21.460;2024-02-15T11:23:04;99264.00;;;14.50;31.73
85507;BME280;75915;41.988;21.460;2024-02-15T11:25:37;99259.69;;;14.49;30.99
85507;BME280;75915;41.988;21.460;2024-02-15T11:30:55;99256.50;;;14.37;31.18
85507;BME280;75915;41.988;21.460;2024-02-15T11:33:44;99256.53;;;14.27;31.77
85507;BME280;75915;41.988;21.460;2024-02-15T11:36:13;99246.03;;;14.30;31.55
85507;BME280;75915;41.988;21.460;2024-02-15T11:38:40;99243.06;;;14.22;30.40
85507;BME280;75915;41.988;21.460;2024-02-15T11:41:10;99240.44;;;14.06;30.77
85507;BME280;75915;41.988;21.460;2024-02-15T11:43:47;99235.56;;;13.98;31.22
85507;BME280;75915;41.988;21.460;2024-02-15T11:46:27;99235.88;;;13.81;31.33
85507;BME280;75915;41.988;21.460;2024-02-15T11:48:57;99237.22;;;13.79;31.26
85507;BME280;75915;41.988;21.460;2024-02-15T11:51:34;99235.88;;;13.76;30.75
85507;BME280;75915;41.988;21.460;2024-02-15T11:54:11;99238.31;;;13.78;31.65
85507;BME280;75915;41.988;21.460;2024-02-15T11:59:08;99227.28;;;13.84;30.82
85507;BME280;75915;41.988;21.460;2024-02-15T12:01:44;99224.31;;;13.81;30.81
85507;BME280;75915;41.988;21.460;2024-02-15T12:04:28;99214.59;;;13.85;30.93
85507;BME280;75915;41.988;21.460;2024-02-15T12:07:14;99202.19;;;13.84;31.22
85507;BME280;75915;41.988;21.460;2024-02-15T12:10:01;99213.78;;;13.79;31.35
85507;BME280;75915;41.988;21.460;2024-02-15T12:12:54;99205.19;;;13.77;30.95
85507;BME280;75915;41.988;21.460;2024-02-15T12:15:38;99190.09;;;13.76;31.67
85507;BME280;75915;41.988;21.460;2024-02-15T12:18:23;99194.69;;;13.81;31.19
85507;BME280;75915;41.988;21.460;2024-02-15T12:21:08;99188.22;;;13.66;30.86
85507;BME280;75915;41.988;21.460;2024-02-15T12:23:37;99181.22;;;13.76;31.94
85507;BME280;75915;41.988;21.460;2024-02-15T12:26:08;99185.00;;;13.80;31.66
85507;BME280;75915;41.988;21.460;2024-02-15T12:28:35;99188.19;;;13.82;31.76
85507;BME280;75915;41.988;21.460;2024-02-15T12:31:01;99176.63;;;13.76;31.58
85507;BME280;75915;41.988;21.460;2024-02-15T12:33:27;99178.78;;;13.74;31.80
85507;BME280;75915;41.988;21.460;2024-02-15T12:36:04;99179.88;;;13.78;32.51
85507;BME280;75915;41.988;21.460;2024-02-15T12:38:34;99173.94;;;13.81;32.10
85507;BME280;75915;41.988;21.460;2024-02-15T12:41:18;99160.47;;;13.76;31.80
85507;BME280;75915;41.988;21.460;2024-02-15T12:43:44;99168.56;;;13.76;31.80
85507;BME280;75915;41.988;21.460;2024-02-15T12:46:09;99155.91;;;13.77;31.78
85507;BME280;75915;41.988;21.460;2024-02-15T12:48:35;99150.50;;;13.77;31.23
85507;BME280;75915;41.988;21.460;2024-02-15T12:51:13;99158.34;;;13.73;32.12
85507;BME280;75915;41.988;21.460;2024-02-15T12:53:38;99155.06;;;13.81;31.96
85507;BME280;75915;41.988;21.460;2024-02-15T12:56:05;99159.66;;;13.86;31.92
85507;BME280;75915;41.988;21.460;2024-02-15T12:58:39;99154.00;;;13.82;31.33
85507;BME280;75915;41.988;21.460;2024-02-15T13:01:05;99155.63;;;13.78;31.77
85507;BME280;75915;41.988;21.460;2024-02-15T13:03:32;99157.22;;;13.79;31.57
85507;BME280;75915;41.988;21.460;2024-02-15T13:05:59;99156.72;;;13.82;31.18
85507;BME280;75915;41.988;21.460;2024-02-15T13:08:24;99153.75;;;13.74;31.37
85507;BME280;75915;41.988;21.460;2024-02-15T13:10:50;99150.25;;;13.73;31.76
85507;BME280;75915;41.988;21.460;2024-02-15T13:13:16;99145.41;;;13.75;31.67
85507;BME280;75915;41.988;21.460;2024-02-15T13:15:43;99132.22;;;13.69;31.67
85507;BME280;75915;41.988;21.460;2024-02-15T13:18:10;99140.31;;;13.69;31.85